Terminal Aerodrome Forecast
Issued by NWS

Current Version | Previous Version | Graphics & Text | Print | Product List | Glossary On
Versions: 1 2 3 4 5 6 7 8 9 10 11 12 13 14 15 16 17 18 19 20
985
FTUS41 KRLX 260530
TAFCKB
TAF
KCKB 260530Z 2606/2706 14004KT P6SM BKN100
     FM261700 18009G15KT P6SM -SHRA BKN050
     FM262100 17007G16KT P6SM -SHRA BKN030
     FM270000 16007KT P6SM -SHRA BKN040=

USA.gov is the U.S. government's official web portal to all federal, state and local government web resources and services.